createdAt,value
2018-10-07T00:01:14.011Z,16.45
2018-10-07T00:03:43.226Z,16.40
2018-10-07T00:06:11.433Z,16.40
2018-10-07T00:08:39.611Z,16.41
2018-10-07T00:11:09.339Z,16.43
2018-10-07T00:13:37.597Z,16.46
2018-10-07T00:16:05.847Z,16.51
2018-10-07T00:18:34.144Z,16.54
2018-10-07T00:21:02.464Z,16.58
2018-10-07T00:23:30.703Z,16.59
2018-10-07T00:25:59.061Z,16.63
2018-10-07T00:28:27.276Z,16.66
2018-10-07T00:30:55.580Z,16.70
2018-10-07T00:33:24.095Z,16.71
2018-10-07T00:35:52.327Z,16.72
2018-10-07T00:38:20.646Z,16.77
2018-10-07T00:40:48.987Z,16.80
2018-10-07T00:43:17.275Z,16.82
2018-10-07T00:45:45.684Z,16.84
2018-10-07T00:48:14.095Z,16.84
2018-10-07T00:50:42.538Z,16.85
2018-10-07T00:53:10.935Z,16.87
2018-10-07T00:55:39.239Z,16.85
2018-10-07T00:58:07.599Z,16.87
2018-10-07T01:00:35.831Z,16.88
2018-10-07T01:03:04.266Z,16.90
2018-10-07T01:05:32.523Z,16.90
2018-10-07T01:08:01.333Z,16.90
2018-10-07T01:10:29.632Z,16.87
2018-10-07T01:12:58.007Z,16.86
2018-10-07T01:15:26.320Z,16.81
2018-10-07T01:17:54.576Z,16.75
2018-10-07T01:20:22.885Z,16.71
2018-10-07T01:22:51.196Z,16.68
2018-10-07T01:25:19.647Z,16.64
2018-10-07T01:27:48.734Z,16.62
2018-10-07T01:30:21.582Z,16.62
2018-10-07T01:32:50.824Z,16.64
2018-10-07T01:35:19.155Z,16.63
2018-10-07T01:37:47.797Z,16.64
2018-10-07T01:40:16.152Z,16.64
2018-10-07T01:42:44.693Z,16.64
2018-10-07T01:45:13.007Z,16.65
2018-10-07T01:47:41.535Z,16.65
2018-10-07T01:50:09.876Z,16.64
2018-10-07T01:52:38.067Z,16.63
2018-10-07T01:55:06.323Z,16.63
2018-10-07T01:57:34.461Z,16.62
2018-10-07T02:00:02.715Z,16.60
2018-10-07T02:02:30.906Z,16.58
2018-10-07T02:04:59.248Z,16.56
2018-10-07T02:07:27.463Z,16.55
2018-10-07T02:09:55.619Z,16.54
2018-10-07T02:12:23.819Z,16.51
2018-10-07T02:14:52.043Z,16.51
2018-10-07T02:17:20.220Z,16.48
2018-10-07T02:19:48.396Z,16.47
2018-10-07T02:22:16.606Z,16.49
2018-10-07T02:24:44.747Z,16.50
2018-10-07T02:27:12.906Z,16.50
2018-10-07T02:29:41.117Z,16.48
2018-10-07T02:32:09.440Z,16.46
2018-10-07T02:34:37.599Z,16.47
2018-10-07T02:37:06.010Z,16.46
2018-10-07T02:39:34.200Z,16.46
2018-10-07T02:42:03.686Z,16.44
2018-10-07T02:44:31.894Z,16.39
2018-10-07T02:47:00.295Z,16.36
2018-10-07T02:49:28.544Z,16.32
2018-10-07T02:51:56.978Z,16.29
2018-10-07T02:54:25.635Z,16.28
2018-10-07T02:56:53.850Z,16.27
2018-10-07T02:59:22.038Z,16.28
2018-10-07T03:01:50.399Z,16.32
2018-10-07T03:04:18.613Z,16.32
2018-10-07T03:06:46.799Z,16.32
2018-10-07T03:09:14.984Z,16.32
2018-10-07T03:11:43.157Z,16.29
2018-10-07T03:14:11.356Z,16.29
2018-10-07T03:16:39.551Z,16.28
2018-10-07T03:19:07.758Z,16.28
2018-10-07T03:21:35.938Z,16.26
2018-10-07T03:24:04.204Z,16.25
2018-10-07T03:26:32.412Z,16.23
2018-10-07T03:29:00.640Z,16.21
2018-10-07T03:31:28.789Z,16.19
2018-10-07T03:33:56.984Z,16.18
2018-10-07T03:36:25.243Z,16.22
2018-10-07T03:38:53.509Z,16.22
2018-10-07T03:41:21.762Z,16.24
2018-10-07T03:43:49.968Z,16.24
2018-10-07T03:46:18.138Z,16.23
2018-10-07T03:48:46.383Z,16.26
2018-10-07T03:51:14.603Z,16.27
2018-10-07T03:53:42.835Z,16.28
2018-10-07T03:56:11.007Z,16.31
2018-10-07T03:58:39.155Z,16.31
2018-10-07T04:01:07.392Z,16.31
2018-10-07T04:03:35.662Z,16.31
2018-10-07T04:06:03.843Z,16.30
2018-10-07T04:08:32.032Z,16.29
2018-10-07T04:11:00.186Z,16.28
2018-10-07T04:13:28.432Z,16.27
2018-10-07T04:15:56.639Z,16.27
2018-10-07T04:18:24.822Z,16.25
2018-10-07T04:20:53.006Z,16.24
2018-10-07T04:23:21.192Z,16.23
2018-10-07T04:25:49.362Z,16.26
2018-10-07T04:28:17.547Z,16.25
2018-10-07T04:30:45.724Z,16.27
2018-10-07T04:33:13.875Z,16.27
2018-10-07T04:35:42.111Z,16.27
2018-10-07T04:38:10.351Z,16.26
2018-10-07T04:40:38.548Z,16.25
2018-10-07T04:43:06.699Z,16.25
2018-10-07T04:45:34.865Z,16.23
2018-10-07T04:48:03.011Z,16.22
2018-10-07T04:50:31.199Z,16.22
2018-10-07T04:52:59.426Z,16.18
2018-10-07T04:55:27.607Z,16.21
2018-10-07T04:57:55.752Z,16.21
2018-10-07T05:00:23.994Z,16.18
2018-10-07T05:02:52.156Z,16.16
2018-10-07T05:05:20.364Z,16.15
2018-10-07T05:07:48.537Z,16.15
2018-10-07T05:10:52.571Z,16.13
2018-10-07T05:13:23.843Z,16.08
2018-10-07T05:15:54.752Z,16.08
2018-10-07T05:18:23.230Z,16.07
2018-10-07T05:20:51.555Z,16.05
2018-10-07T05:23:19.740Z,16.02
2018-10-07T05:25:47.966Z,16.02
2018-10-07T05:28:16.443Z,16.00
2018-10-07T05:30:44.700Z,16.01
2018-10-07T05:33:12.992Z,15.98
2018-10-07T05:35:41.183Z,15.96
2018-10-07T05:38:09.395Z,15.94
2018-10-07T05:40:37.625Z,15.93
2018-10-07T05:43:05.807Z,15.89
2018-10-07T05:45:34.093Z,15.89
2018-10-07T05:48:02.309Z,15.88
2018-10-07T05:50:30.543Z,15.87
2018-10-07T05:52:58.759Z,15.86
2018-10-07T05:55:27.054Z,15.86
2018-10-07T05:57:57.851Z,15.85
2018-10-07T06:00:27.891Z,15.84
2018-10-07T06:03:02.251Z,15.83
2018-10-07T06:05:30.493Z,15.83
2018-10-07T06:07:58.746Z,15.78
2018-10-07T06:10:26.944Z,15.79
2018-10-07T06:12:55.143Z,15.79
2018-10-07T06:15:31.295Z,15.78
2018-10-07T06:17:59.763Z,15.76
2018-10-07T06:20:28.646Z,15.77
2018-10-07T06:22:57.196Z,15.79
2018-10-07T06:25:25.524Z,15.81
2018-10-07T06:27:54.008Z,15.87
2018-10-07T06:30:22.228Z,15.91
2018-10-07T06:32:50.636Z,15.94
2018-10-07T06:35:18.840Z,15.96
2018-10-07T06:37:47.111Z,15.97
2018-10-07T06:40:15.255Z,15.97
2018-10-07T06:42:43.528Z,15.94
2018-10-07T06:45:11.727Z,15.85
2018-10-07T06:47:40.114Z,15.82
2018-10-07T06:50:08.337Z,15.78
2018-10-07T06:52:36.508Z,15.70
2018-10-07T06:55:04.657Z,15.69
2018-10-07T06:57:32.860Z,15.75
2018-10-07T07:00:01.192Z,15.71
2018-10-07T07:02:29.551Z,15.70
2018-10-07T07:04:57.731Z,15.73
2018-10-07T07:07:26.316Z,15.74
2018-10-07T07:09:54.845Z,15.75
2018-10-07T07:12:23.190Z,15.72
2018-10-07T07:14:51.420Z,15.68
2018-10-07T07:17:19.598Z,15.65
2018-10-07T07:19:47.996Z,15.59
2018-10-07T07:22:16.172Z,15.56
2018-10-07T07:24:44.363Z,15.53
2018-10-07T07:27:12.547Z,15.51
2018-10-07T07:29:41.292Z,15.52
2018-10-07T07:32:09.471Z,15.53
2018-10-07T07:34:37.611Z,15.55
2018-10-07T07:37:05.904Z,15.53
2018-10-07T07:39:34.122Z,15.51
2018-10-07T07:42:02.310Z,15.45
2018-10-07T07:44:30.493Z,15.46
2018-10-07T07:46:58.691Z,15.43
2018-10-07T07:49:26.942Z,15.44
2018-10-07T07:51:55.159Z,15.44
2018-10-07T07:54:23.354Z,15.42
2018-10-07T07:56:51.512Z,15.42
2018-10-07T07:59:19.696Z,15.47
2018-10-07T08:01:47.863Z,15.52
2018-10-07T08:04:16.051Z,15.58
2018-10-07T08:06:44.267Z,15.62
2018-10-07T08:09:12.478Z,15.62
2018-10-07T08:11:40.790Z,15.52
2018-10-07T08:14:09.020Z,15.48
2018-10-07T08:16:37.267Z,15.38
2018-10-07T08:19:05.500Z,15.34
2018-10-07T08:21:33.642Z,15.28
2018-10-07T08:24:01.863Z,15.21
2018-10-07T08:26:30.138Z,15.18
2018-10-07T08:28:58.327Z,15.15
2018-10-07T08:31:26.490Z,15.10
2018-10-07T08:33:54.683Z,15.10
2018-10-07T08:36:22.883Z,15.10
2018-10-07T08:38:51.155Z,15.07
2018-10-07T08:41:19.527Z,15.07
2018-10-07T08:43:47.768Z,15.09
2018-10-07T08:46:16.175Z,15.10
2018-10-07T08:48:45.193Z,15.13
2018-10-07T08:51:14.289Z,15.15
2018-10-07T08:53:42.696Z,15.20
2018-10-07T08:56:11.157Z,15.23
2018-10-07T08:58:39.330Z,15.25
2018-10-07T09:01:07.539Z,15.25
2018-10-07T09:03:36.204Z,15.26
2018-10-07T09:06:04.436Z,15.28
2018-10-07T09:08:32.877Z,15.29
2018-10-07T09:11:01.119Z,15.30
2018-10-07T09:13:29.337Z,15.32
2018-10-07T09:15:57.484Z,15.35
2018-10-07T09:18:25.705Z,15.38
2018-10-07T09:20:54.001Z,15.39
2018-10-07T09:23:22.142Z,15.41
2018-10-07T09:25:50.329Z,15.41
2018-10-07T09:28:18.508Z,15.46
2018-10-07T09:30:46.671Z,15.46
2018-10-07T09:33:14.863Z,15.49
2018-10-07T09:35:43.054Z,15.51
2018-10-07T09:38:11.216Z,15.52
2018-10-07T09:40:39.383Z,15.51
2018-10-07T09:43:07.551Z,15.51
2018-10-07T09:45:35.754Z,15.51
2018-10-07T09:48:03.975Z,15.51
2018-10-07T09:50:32.135Z,15.53
2018-10-07T09:53:00.351Z,15.54
2018-10-07T09:55:28.674Z,15.60
2018-10-07T09:57:57.324Z,15.66
2018-10-07T10:00:40.842Z,15.70
2018-10-07T10:03:10.323Z,15.71
2018-10-07T10:05:38.535Z,15.71
2018-10-07T10:08:06.890Z,15.76
2018-10-07T10:10:35.083Z,15.81
2018-10-07T10:13:03.394Z,15.89
2018-10-07T10:15:31.583Z,15.96
2018-10-07T10:18:02.288Z,16.04
2018-10-07T10:20:36.931Z,16.09
2018-10-07T10:23:11.928Z,16.11
2018-10-07T10:25:58.124Z,16.12
2018-10-07T10:29:08.559Z,16.12
2018-10-07T10:32:15.087Z,16.12
2018-10-07T10:34:54.953Z,16.14
2018-10-07T10:37:29.778Z,16.18
2018-10-07T10:39:59.949Z,16.25
2018-10-07T10:43:37.185Z,16.29
2018-10-07T10:46:22.663Z,16.31
2018-10-07T10:49:03.895Z,16.41
2018-10-07T10:53:47.547Z,16.57
2018-10-07T10:56:19.464Z,17.01
2018-10-07T10:59:12.539Z,17.22
2018-10-07T11:03:00.571Z,17.41
2018-10-07T11:05:32.419Z,17.55
2018-10-07T11:10:14.169Z,17.67
2018-10-07T11:12:57.576Z,17.86
2018-10-07T11:15:29.748Z,18.00
2018-10-07T11:18:04.840Z,18.13
2018-10-07T11:20:49.339Z,18.30
2018-10-07T11:23:41.084Z,18.43
2018-10-07T11:26:19.147Z,18.57
2018-10-07T11:29:08.658Z,18.68
2018-10-07T11:32:05.142Z,18.81
2018-10-07T11:34:42.091Z,18.94
2018-10-07T11:37:25.695Z,19.02
2018-10-07T11:40:08.650Z,19.03
2018-10-07T11:43:12.512Z,19.04
2018-10-07T11:45:44.631Z,19.08
2018-10-07T11:48:23.985Z,19.08
2018-10-07T11:51:01.865Z,19.00
2018-10-07T11:53:52.491Z,18.88
2018-10-07T11:56:21.920Z,18.74
2018-10-07T11:58:50.079Z,18.60
2018-10-07T12:01:18.239Z,18.47
2018-10-07T12:03:46.442Z,18.35
2018-10-07T12:06:14.595Z,18.29
2018-10-07T12:08:42.747Z,18.23
2018-10-07T12:11:10.931Z,18.18
2018-10-07T12:13:39.153Z,18.11
2018-10-07T12:16:07.781Z,18.04
2018-10-07T12:18:35.930Z,17.98
2018-10-07T12:21:04.123Z,17.97
2018-10-07T12:23:32.286Z,17.98
2018-10-07T12:26:00.528Z,17.94
2018-10-07T12:28:28.722Z,17.96
2018-10-07T12:30:56.911Z,17.98
2018-10-07T12:33:25.142Z,18.03
2018-10-07T12:35:53.372Z,18.17
2018-10-07T12:38:21.619Z,18.42
2018-10-07T12:40:49.892Z,18.58
2018-10-07T12:43:18.130Z,18.72
2018-10-07T12:45:46.300Z,18.93
2018-10-07T12:48:14.512Z,19.15
2018-10-07T12:50:42.840Z,19.24
2018-10-07T12:53:11.211Z,19.25
2018-10-07T12:55:39.550Z,19.24
2018-10-07T12:58:07.731Z,19.15
2018-10-07T13:00:35.888Z,19.09
2018-10-07T13:03:04.226Z,19.16
2018-10-07T13:05:32.423Z,19.17
2018-10-07T13:08:00.619Z,19.06
2018-10-07T13:10:28.799Z,18.88
2018-10-07T13:12:56.963Z,18.71
2018-10-07T13:15:25.190Z,18.56
2018-10-07T13:17:53.411Z,18.45
2018-10-07T13:20:21.582Z,18.35
2018-10-07T13:22:50.044Z,18.23
2018-10-07T13:25:18.214Z,18.15
2018-10-07T13:27:46.491Z,18.10
2018-10-07T13:30:14.727Z,18.04
2018-10-07T13:32:42.971Z,18.01
2018-10-07T13:35:11.508Z,18.04
2018-10-07T13:37:46.671Z,18.07
2018-10-07T13:40:14.926Z,18.09
2018-10-07T13:42:43.154Z,18.07
2018-10-07T13:45:11.347Z,18.06
2018-10-07T13:47:39.539Z,18.05
2018-10-07T13:50:07.710Z,18.01
2018-10-07T13:52:35.955Z,18.00
2018-10-07T13:55:04.454Z,17.97
2018-10-07T13:57:32.627Z,17.93
2018-10-07T14:00:00.915Z,17.90
2018-10-07T14:02:29.122Z,17.93
2018-10-07T14:04:57.311Z,17.96
2018-10-07T14:07:25.515Z,17.97
2018-10-07T14:09:53.675Z,17.95
2018-10-07T14:12:21.862Z,17.99
2018-10-07T14:14:50.047Z,18.01
2018-10-07T14:17:18.260Z,18.09
2018-10-07T14:19:46.491Z,18.21
2018-10-07T14:22:14.704Z,18.28
2018-10-07T14:24:42.895Z,18.32
2018-10-07T14:27:11.184Z,18.36
2018-10-07T14:29:39.355Z,18.37
2018-10-07T14:32:07.583Z,18.39
2018-10-07T14:34:35.890Z,18.43
2018-10-07T14:37:04.366Z,18.47
2018-10-07T14:39:32.519Z,18.43
2018-10-07T14:42:00.748Z,18.40
2018-10-07T14:44:28.946Z,18.34
2018-10-07T14:46:57.243Z,18.30
2018-10-07T14:49:25.451Z,18.25
2018-10-07T14:51:53.615Z,18.23
2018-10-07T14:54:21.838Z,18.21
2018-10-07T14:56:50.030Z,18.22
2018-10-07T14:59:18.215Z,18.23
2018-10-07T15:01:46.410Z,18.23
2018-10-07T15:04:14.631Z,18.17
2018-10-07T15:06:42.786Z,18.14
2018-10-07T15:09:11.961Z,18.11
2018-10-07T15:11:40.231Z,18.07
2018-10-07T15:14:08.760Z,18.00
2018-10-07T15:16:36.955Z,17.93
2018-10-07T15:19:05.227Z,17.87
2018-10-07T15:21:33.488Z,17.82
2018-10-07T15:24:01.722Z,17.77
2018-10-07T15:26:29.974Z,17.70
2018-10-07T15:28:58.171Z,17.66
2018-10-07T15:31:26.471Z,17.63
2018-10-07T15:33:54.755Z,17.60
2018-10-07T15:36:23.243Z,17.59
2018-10-07T15:38:51.364Z,17.59
2018-10-07T15:41:19.566Z,17.59
2018-10-07T15:43:47.726Z,17.58
2018-10-07T15:46:16.003Z,17.62
2018-10-07T15:48:44.266Z,17.64
2018-10-07T15:51:12.506Z,17.64
2018-10-07T15:53:40.783Z,17.65
2018-10-07T15:56:09.055Z,17.64
2018-10-07T15:58:37.318Z,17.67
2018-10-07T16:01:05.514Z,17.67
2018-10-07T16:03:33.698Z,17.66
2018-10-07T16:06:02.032Z,17.64
2018-10-07T16:08:30.181Z,17.62
2018-10-07T16:10:58.383Z,17.59
2018-10-07T16:13:26.744Z,17.57
2018-10-07T16:15:54.917Z,17.53
2018-10-07T16:18:23.122Z,17.49
2018-10-07T16:20:51.233Z,17.47
2018-10-07T16:23:19.479Z,17.44
2018-10-07T16:25:47.651Z,17.40
2018-10-07T16:28:15.819Z,17.35
2018-10-07T16:30:44.057Z,17.29
2018-10-07T16:33:12.211Z,17.22
2018-10-07T16:35:40.454Z,17.16
2018-10-07T16:38:08.631Z,17.10
2018-10-07T16:40:36.794Z,17.05
2018-10-07T16:43:05.008Z,16.99
2018-10-07T16:45:33.212Z,16.94
2018-10-07T16:48:01.417Z,16.87
2018-10-07T16:50:29.743Z,16.80
2018-10-07T16:52:57.926Z,16.74
2018-10-07T16:55:26.087Z,16.67
2018-10-07T16:57:54.495Z,16.61
2018-10-07T17:00:22.686Z,16.57
2018-10-07T17:02:50.847Z,16.54
2018-10-07T17:05:19.031Z,16.50
2018-10-07T17:07:47.204Z,16.47
2018-10-07T17:10:15.415Z,16.42
2018-10-07T17:12:43.652Z,16.36
2018-10-07T17:15:11.885Z,16.32
2018-10-07T17:17:40.092Z,16.27
2018-10-07T17:20:08.310Z,16.23
2018-10-07T17:22:36.497Z,16.17
2018-10-07T17:25:04.881Z,16.13
2018-10-07T17:27:33.170Z,16.09
2018-10-07T17:30:01.389Z,16.04
2018-10-07T17:32:29.596Z,15.99
2018-10-07T17:34:57.807Z,15.93
2018-10-07T17:37:26.087Z,15.92
2018-10-07T17:39:54.249Z,15.86
2018-10-07T17:42:22.395Z,15.79
2018-10-07T17:44:50.599Z,15.73
2018-10-07T17:47:18.801Z,15.67
2018-10-07T17:49:47.019Z,15.61
2018-10-07T17:52:15.213Z,15.55
2018-10-07T17:54:43.386Z,15.46
2018-10-07T17:57:11.558Z,15.44
2018-10-07T17:59:39.770Z,15.39
2018-10-07T18:02:08.335Z,15.35
2018-10-07T18:04:36.546Z,15.31
2018-10-07T18:07:04.697Z,15.26
2018-10-07T18:09:32.914Z,15.21
2018-10-07T18:12:01.108Z,15.18
2018-10-07T18:14:29.270Z,15.13
2018-10-07T18:16:57.442Z,15.12
2018-10-07T18:19:25.608Z,15.11
2018-10-07T18:21:53.832Z,15.08
2018-10-07T18:24:22.019Z,15.06
2018-10-07T18:26:50.235Z,15.03
2018-10-07T18:29:18.423Z,15.00
2018-10-07T18:31:46.601Z,14.97
2018-10-07T18:34:14.850Z,14.94
2018-10-07T18:36:43.055Z,14.92
2018-10-07T18:39:11.262Z,14.91
2018-10-07T18:41:40.139Z,14.88
2018-10-07T18:44:08.623Z,14.84
2018-10-07T18:46:36.788Z,14.83
2018-10-07T18:49:05.275Z,14.78
2018-10-07T18:51:33.434Z,14.76
2018-10-07T18:54:01.595Z,14.73
2018-10-07T18:56:29.778Z,14.71
2018-10-07T18:58:57.956Z,14.66
2018-10-07T19:01:26.194Z,14.63
2018-10-07T19:03:54.338Z,14.61
2018-10-07T19:06:22.539Z,14.58
2018-10-07T19:08:50.824Z,14.58
2018-10-07T19:11:18.995Z,14.60
2018-10-07T19:13:47.215Z,14.62
2018-10-07T19:16:15.460Z,14.65
2018-10-07T19:18:43.694Z,14.67
2018-10-07T19:21:11.888Z,14.67
2018-10-07T19:23:40.084Z,14.67
2018-10-07T19:26:08.315Z,14.65
2018-10-07T19:28:36.547Z,14.62
2018-10-07T19:31:04.718Z,14.57
2018-10-07T19:33:32.874Z,14.53
2018-10-07T19:36:01.056Z,14.48
2018-10-07T19:38:29.244Z,14.43
2018-10-07T19:40:57.409Z,14.39
2018-10-07T19:43:25.624Z,14.34
2018-10-07T19:45:54.181Z,14.30
2018-10-07T19:48:22.326Z,14.27
2018-10-07T19:50:50.806Z,14.25
2018-10-07T19:53:19.011Z,14.23
2018-10-07T19:55:47.168Z,14.20
2018-10-07T19:58:15.350Z,14.17
2018-10-07T20:00:43.599Z,14.14
2018-10-07T20:03:11.851Z,14.10
2018-10-07T20:05:40.214Z,14.06
2018-10-07T20:08:08.391Z,14.00
2018-10-07T20:10:36.531Z,13.97
2018-10-07T20:13:04.726Z,13.92
2018-10-07T20:15:32.890Z,13.88
2018-10-07T20:18:01.854Z,13.83
2018-10-07T20:20:29.995Z,13.79
2018-10-07T20:22:58.187Z,13.77
2018-10-07T20:25:26.351Z,13.73
2018-10-07T20:27:54.534Z,13.70
2018-10-07T20:30:22.742Z,13.67
2018-10-07T20:32:50.899Z,13.65
2018-10-07T20:35:19.076Z,13.64
2018-10-07T20:37:47.277Z,13.62
2018-10-07T20:40:15.469Z,13.57
2018-10-07T20:42:43.595Z,13.53
2018-10-07T20:45:11.746Z,13.49
2018-10-07T20:47:39.959Z,13.44
2018-10-07T20:50:08.212Z,13.42
2018-10-07T20:52:36.453Z,13.38
2018-10-07T20:55:04.579Z,13.34
2018-10-07T20:57:32.726Z,13.32
2018-10-07T21:00:00.899Z,13.30
2018-10-07T21:02:29.204Z,13.28
2018-10-07T21:04:57.314Z,13.26
2018-10-07T21:07:25.451Z,13.25
2018-10-07T21:09:53.611Z,13.22
2018-10-07T21:12:21.830Z,13.20
2018-10-07T21:14:50.024Z,13.18
2018-10-07T21:17:18.244Z,13.17
2018-10-07T21:19:46.534Z,13.15
2018-10-07T21:22:21.012Z,13.18
2018-10-07T21:24:49.207Z,13.18
2018-10-07T21:27:17.335Z,13.15
2018-10-07T21:29:45.625Z,13.15
2018-10-07T21:32:13.728Z,13.13
2018-10-07T21:34:41.915Z,13.13
2018-10-07T21:37:10.135Z,13.13
2018-10-07T21:39:38.316Z,13.12
2018-10-07T21:42:06.506Z,13.11
2018-10-07T21:44:34.700Z,13.10
2018-10-07T21:47:02.903Z,13.07
2018-10-07T21:49:31.099Z,13.04
2018-10-07T21:51:59.285Z,13.01
2018-10-07T21:54:27.436Z,13.00
2018-10-07T21:56:55.614Z,13.01
2018-10-07T21:59:23.759Z,13.04
2018-10-07T22:01:51.983Z,13.10
2018-10-07T22:04:20.146Z,13.12
2018-10-07T22:06:48.426Z,13.09
2018-10-07T22:09:16.624Z,13.10
2018-10-07T22:11:44.747Z,13.08
2018-10-07T22:14:12.975Z,13.06
2018-10-07T22:16:41.163Z,13.05
2018-10-07T22:19:09.387Z,13.04
2018-10-07T22:21:37.579Z,13.02
2018-10-07T22:24:06.506Z,13.01
2018-10-07T22:26:34.697Z,13.00
2018-10-07T22:29:02.842Z,13.03
2018-10-07T22:31:30.978Z,13.04
2018-10-07T22:33:59.143Z,13.06
2018-10-07T22:36:27.310Z,13.06
2018-10-07T22:38:55.470Z,13.07
2018-10-07T22:41:23.748Z,13.04
2018-10-07T22:43:51.983Z,13.00
2018-10-07T22:46:20.553Z,12.93
2018-10-07T22:48:48.771Z,12.89
2018-10-07T22:51:17.011Z,12.84
2018-10-07T22:53:45.227Z,12.78
2018-10-07T22:56:13.442Z,12.74
2018-10-07T22:58:41.611Z,12.73
2018-10-07T23:01:09.763Z,12.74
2018-10-07T23:03:38.013Z,12.72
2018-10-07T23:06:06.226Z,12.68
2018-10-07T23:08:34.423Z,12.65
2018-10-07T23:11:02.660Z,12.66
2018-10-07T23:13:30.774Z,12.66
2018-10-07T23:15:59.090Z,12.68
2018-10-07T23:18:27.295Z,12.71
2018-10-07T23:20:55.478Z,12.72
2018-10-07T23:23:23.684Z,12.75
2018-10-07T23:25:51.838Z,12.74
2018-10-07T23:28:20.000Z,12.71
2018-10-07T23:30:48.253Z,12.69
2018-10-07T23:33:16.509Z,12.65
2018-10-07T23:35:44.651Z,12.62
2018-10-07T23:38:12.860Z,12.58
2018-10-07T23:40:42.338Z,12.52
2018-10-07T23:43:10.536Z,12.49
2018-10-07T23:45:38.832Z,12.47
2018-10-07T23:48:06.955Z,12.41
2018-10-07T23:50:35.127Z,12.39
2018-10-07T23:53:03.364Z,12.37
2018-10-07T23:55:31.552Z,12.37
2018-10-07T23:57:59.977Z,12.40
